PARDEE (PAR)

Elevation: 568' · MOKELUMNE R basin · Operator: East Bay Municipal Utility District

Provisional data, subject to change.
Query executed Wednesday at 2:00:08   clock

Select a sensor type for a plot of data.
Note: Reservoir Flows are daily averages.

Earlier

Date RES ELE    STORAGE    RES CHG    OUTFLOW    INFLOW    PPT INC   
 FEET   AF   AF   CFS   CFS   INCHES  
07/01/2014 560.89 183190 -507 702 423 0.00
07/02/2014 560.59 182580 -545 705 413 0.00
07/03/2014 560.61 182550 99 180 208 0.00
07/04/2014 560.45 181280 -339 177 85 0.00
07/05/2014 560.30 181940 -306 177 49 0.00
07/06/2014 560.30 181940 -16 177 221 0.00
07/07/2014 560.08 181500 -389 699 489 0.00
07/08/2014 559.86 1801000 -411 715 478 0.00
07/09/2014 559.64 180550 -1620371 718 515 0.00
07/10/2014 559.61 180470 17 177 177 0.00
07/11/2014 559.45 180150 -238 177 56 0.00
07/12/2014 559.32 179860 -255 177 71 0.00
07/13/2014 559.19 179570 -276 176 71 0.00
07/14/2014 558.58 178300 -1148 760 134 0.00
07/15/2014 558.17 177510 -726 798 415 0.00
07/16/2014 557.83 176780 -634 801 441 0.00
07/17/2014 557.96 177030 353 258 425 0.00
07/18/2014 557.99 177190 178 268 388 0.00
07/19/2014 557.94 177090 -116 256 247 0.00
07/20/2014 557.91 177030 -54 256 257 0.00
07/21/2014 557.41 175990 -1031 794 280 0.00
07/22/2014 556.90 174940 -1049 759 249 0.00
07/23/2014 556.41 173940 -1008 754 261 0.00
07/24/2014 556.44 173940 70 326 370 0.00
07/25/2014 556.50 174040 193 351 413 0.00
07/26/2014 556.68 174410 361 257 485 0.00
07/27/2014 556.86 174820 369 234 483 0.00
07/28/2014 556.55 174180 -593 750 449 0.00
07/29/2014 -- -- -- 748 298 --
07/30/2014 -- -- -- -- -- --

Later | Latest

Warning! This data is preliminary and subject to revision.

Download Data Now Download Data Now | Show PAR Map | Plot PAR Data | 1 Month PAR Data | Real-Time PAR Data | PAR Info